Aérodrome :
LOGIN :

S'inscrire | Disclaimer

   EN    FR    IT 

 










Légende :    VFR   VFR Marginal   IFR   IFR Intensif   IFR Très Intensif
Visi : 
Plafond : 
>= 8 km
>= 3000ft
5 à 8 km
1000 à 3000 ft
1500m à 5 km
500 à 1000 ft
800 à 1500m
200 à 500 ft
< 800m
< 200 ft
Symboles :   Orages  Brouillard  Fortes neiges  Fortes précipitations  Vent > 20 kt
SIGMETs :   Divers  Orages  Givrage  Turbulence  Onde Orograph.  Cendres Volcan.






- Altitude de l'aérodrome : 197 ft
- Code IATA : XOG


LFMO - Orange

DERNIER METAR :
  • 160200Z AUTO 36022G36KT 9999 FEW024 03/M02 Q1023

METARs EXPIRÉS :
  • 160130Z AUTO 35026G38KT CAVOK 03/M01 Q1023 NOSIG
  • 160100Z AUTO 36023G38KT 9999 FEW020 03/M01 Q1022 NOSIG
  • 160030Z AUTO 35024G34KT 9999 FEW019 03/M01 Q1023 NOSIG
  • 160000Z AUTO 35023G34KT CAVOK 03/M01 Q1022 NOSIG
  • 152330Z AUTO 35024G38KT 9999 FEW021 03/M01 Q1022 NOSIG

TAF TAF LFMO
Valide du 15 à 21h jusqu'au 16 à 21h UTC


152000Z 1521/1621 35025G40KT CAVOK TX06/1613Z TN01/1607Z
BECMG 1610/1612 35020G30KT
BECMG 1617/1619 33015KT



MET'MAP, la Météo Aéronautique d'un coup d'oeil ! - Copyright ORBIFLY Décembre 2007 - Disclaimer

ORBIFLY MET'MAP TEAM :

Programmation & Développement : Alexandra Zaïnal
Sur une idée originale de : Baudouin d'Aumeries
Assistance à la programmation : Marc-Olivier Méhu
Soutien technique & logistique : Manuel Goepfert

Contact : metmap@orbifly.com




SOURCES & CREDITS :

   NOAA